sensor_id;sensor_type;location;lat;lon;timestamp;temperature;humidity
31819;DHT22;18384;48.860;9.188;2023-02-28T00:00:50;0.70;90.50
31819;DHT22;18384;48.860;9.188;2023-02-28T00:03:17;0.60;90.60
31819;DHT22;18384;48.860;9.188;2023-02-28T00:05:43;0.60;90.70
31819;DHT22;18384;48.860;9.188;2023-02-28T00:08:09;0.70;90.80
31819;DHT22;18384;48.860;9.188;2023-02-28T00:10:35;0.60;90.90
31819;DHT22;18384;48.860;9.188;2023-02-28T00:13:04;0.60;91.10
31819;DHT22;18384;48.860;9.188;2023-02-28T00:15:31;0.50;91.20
31819;DHT22;18384;48.860;9.188;2023-02-28T00:17:59;0.50;91.20
31819;DHT22;18384;48.860;9.188;2023-02-28T00:20:25;0.50;91.30
31819;DHT22;18384;48.860;9.188;2023-02-28T00:22:52;0.50;91.40
31819;DHT22;18384;48.860;9.188;2023-02-28T00:25:21;0.50;91.50
31819;DHT22;18384;48.860;9.188;2023-02-28T00:27:49;0.60;91.50
31819;DHT22;18384;48.860;9.188;2023-02-28T00:30:18;0.50;91.60
31819;DHT22;18384;48.860;9.188;2023-02-28T00:32:46;0.60;91.60
31819;DHT22;18384;48.860;9.188;2023-02-28T00:35:13;0.60;91.60
31819;DHT22;18384;48.860;9.188;2023-02-28T00:37:39;0.60;91.70
31819;DHT22;18384;48.860;9.188;2023-02-28T00:40:06;0.70;91.80
31819;DHT22;18384;48.860;9.188;2023-02-28T00:42:34;0.70;91.80
31819;DHT22;18384;48.860;9.188;2023-02-28T00:45:01;0.70;91.90
31819;DHT22;18384;48.860;9.188;2023-02-28T00:47:30;0.60;92.10
31819;DHT22;18384;48.860;9.188;2023-02-28T00:49:56;0.60;92.00
31819;DHT22;18384;48.860;9.188;2023-02-28T00:52:22;0.50;92.30
31819;DHT22;18384;48.860;9.188;2023-02-28T00:54:48;0.60;92.40
31819;DHT22;18384;48.860;9.188;2023-02-28T00:57:14;0.60;92.30
31819;DHT22;18384;48.860;9.188;2023-02-28T00:59:40;0.60;92.50
31819;DHT22;18384;48.860;9.188;2023-02-28T01:02:06;0.60;92.50
31819;DHT22;18384;48.860;9.188;2023-02-28T01:04:33;0.50;92.70
31819;DHT22;18384;48.860;9.188;2023-02-28T01:06:59;0.50;92.80
31819;DHT22;18384;48.860;9.188;2023-02-28T01:09:26;0.50;92.90
31819;DHT22;18384;48.860;9.188;2023-02-28T01:11:52;0.40;93.10
31819;DHT22;18384;48.860;9.188;2023-02-28T01:14:18;0.50;93.20
31819;DHT22;18384;48.860;9.188;2023-02-28T01:16:44;0.50;93.40
31819;DHT22;18384;48.860;9.188;2023-02-28T01:19:10;0.50;93.40
31819;DHT22;18384;48.860;9.188;2023-02-28T01:21:36;0.50;93.40
31819;DHT22;18384;48.860;9.188;2023-02-28T01:24:04;0.40;93.50
31819;DHT22;18384;48.860;9.188;2023-02-28T01:26:31;0.50;93.60
31819;DHT22;18384;48.860;9.188;2023-02-28T01:28:57;0.50;93.60
31819;DHT22;18384;48.860;9.188;2023-02-28T01:31:23;0.60;93.60
31819;DHT22;18384;48.860;9.188;2023-02-28T01:33:49;0.50;93.70
31819;DHT22;18384;48.860;9.188;2023-02-28T01:36:18;0.50;93.70
31819;DHT22;18384;48.860;9.188;2023-02-28T01:38:46;0.50;93.70
31819;DHT22;18384;48.860;9.188;2023-02-28T01:41:24;0.60;93.80
31819;DHT22;18384;48.860;9.188;2023-02-28T01:43:59;0.50;93.80
31819;DHT22;18384;48.860;9.188;2023-02-28T01:46:44;0.50;94.00
31819;DHT22;18384;48.860;9.188;2023-02-28T01:49:15;0.50;94.00
31819;DHT22;18384;48.860;9.188;2023-02-28T01:51:48;0.60;93.90
31819;DHT22;18384;48.860;9.188;2023-02-28T01:54:41;0.50;94.10
31819;DHT22;18384;48.860;9.188;2023-02-28T01:57:09;0.60;94.00
31819;DHT22;18384;48.860;9.188;2023-02-28T01:59:43;0.60;94.00
31819;DHT22;18384;48.860;9.188;2023-02-28T02:02:19;0.60;94.00
31819;DHT22;18384;48.860;9.188;2023-02-28T02:04:55;0.50;94.20
31819;DHT22;18384;48.860;9.188;2023-02-28T02:07:31;0.50;94.30
31819;DHT22;18384;48.860;9.188;2023-02-28T02:10:20;0.50;94.30
31819;DHT22;18384;48.860;9.188;2023-02-28T02:13:00;0.50;94.30
31819;DHT22;18384;48.860;9.188;2023-02-28T02:16:02;0.50;94.30
31819;DHT22;18384;48.860;9.188;2023-02-28T02:18:51;0.50;94.40
31819;DHT22;18384;48.860;9.188;2023-02-28T02:21:46;0.40;94.50
31819;DHT22;18384;48.860;9.188;2023-02-28T02:27:15;0.40;94.60
31819;DHT22;18384;48.860;9.188;2023-02-28T02:30:18;0.40;94.60
31819;DHT22;18384;48.860;9.188;2023-02-28T02:35:47;0.40;94.80
31819;DHT22;18384;48.860;9.188;2023-02-28T02:43:45;0.50;94.80
31819;DHT22;18384;48.860;9.188;2023-02-28T02:46:29;0.50;94.80
31819;DHT22;18384;48.860;9.188;2023-02-28T02:49:02;0.50;94.90
31819;DHT22;18384;48.860;9.188;2023-02-28T02:51:32;0.50;95.00
31819;DHT22;18384;48.860;9.188;2023-02-28T02:54:33;0.60;95.00
31819;DHT22;18384;48.860;9.188;2023-02-28T02:57:07;0.60;95.00
31819;DHT22;18384;48.860;9.188;2023-02-28T02:59:39;0.60;95.00
31819;DHT22;18384;48.860;9.188;2023-02-28T03:02:11;0.50;95.20
31819;DHT22;18384;48.860;9.188;2023-02-28T03:04:45;0.60;95.20
31819;DHT22;18384;48.860;9.188;2023-02-28T03:07:14;0.60;95.30
31819;DHT22;18384;48.860;9.188;2023-02-28T03:09:40;0.60;95.40
31819;DHT22;18384;48.860;9.188;2023-02-28T03:12:10;0.60;95.70
31819;DHT22;18384;48.860;9.188;2023-02-28T03:15:12;0.60;95.50
31819;DHT22;18384;48.860;9.188;2023-02-28T03:18:02;0.60;95.50
31819;DHT22;18384;48.860;9.188;2023-02-28T03:22:08;0.60;95.60
31819;DHT22;18384;48.860;9.188;2023-02-28T03:25:12;0.70;95.50
31819;DHT22;18384;48.860;9.188;2023-02-28T03:27:55;0.80;95.50
31819;DHT22;18384;48.860;9.188;2023-02-28T03:31:17;0.70;95.50
31819;DHT22;18384;48.860;9.188;2023-02-28T03:34:08;0.60;95.70
31819;DHT22;18384;48.860;9.188;2023-02-28T03:36:41;0.70;95.70
31819;DHT22;18384;48.860;9.188;2023-02-28T03:39:28;0.70;95.70
31819;DHT22;18384;48.860;9.188;2023-02-28T03:42:07;0.70;95.80
31819;DHT22;18384;48.860;9.188;2023-02-28T03:44:42;0.60;95.90
31819;DHT22;18384;48.860;9.188;2023-02-28T03:48:01;0.60;95.80
31819;DHT22;18384;48.860;9.188;2023-02-28T03:50:42;0.60;95.90
31819;DHT22;18384;48.860;9.188;2023-02-28T03:53:23;0.60;95.80
31819;DHT22;18384;48.860;9.188;2023-02-28T03:56:03;0.60;95.90
31819;DHT22;18384;48.860;9.188;2023-02-28T03:58:41;0.60;96.00
31819;DHT22;18384;48.860;9.188;2023-02-28T04:01:42;0.70;95.90
31819;DHT22;18384;48.860;9.188;2023-02-28T04:04:12;0.70;95.80
31819;DHT22;18384;48.860;9.188;2023-02-28T04:06:39;0.80;95.80
31819;DHT22;18384;48.860;9.188;2023-02-28T04:09:08;0.70;96.10
31819;DHT22;18384;48.860;9.188;2023-02-28T04:11:41;0.70;96.00
31819;DHT22;18384;48.860;9.188;2023-02-28T04:14:11;0.70;96.00
31819;DHT22;18384;48.860;9.188;2023-02-28T04:16:39;0.60;96.20
31819;DHT22;18384;48.860;9.188;2023-02-28T04:19:08;0.60;96.10
31819;DHT22;18384;48.860;9.188;2023-02-28T04:21:38;0.80;96.10
31819;DHT22;18384;48.860;9.188;2023-02-28T04:24:16;0.80;96.00
31819;DHT22;18384;48.860;9.188;2023-02-28T04:26:46;0.80;96.00
31819;DHT22;18384;48.860;9.188;2023-02-28T04:29:22;0.90;95.90
31819;DHT22;18384;48.860;9.188;2023-02-28T04:31:50;0.90;95.90
31819;DHT22;18384;48.860;9.188;2023-02-28T04:34:20;0.80;96.10
31819;DHT22;18384;48.860;9.188;2023-02-28T04:36:47;0.80;95.90
31819;DHT22;18384;48.860;9.188;2023-02-28T04:39:20;0.80;96.00
31819;DHT22;18384;48.860;9.188;2023-02-28T04:41:46;0.80;96.10
31819;DHT22;18384;48.860;9.188;2023-02-28T04:44:13;0.80;96.10
31819;DHT22;18384;48.860;9.188;2023-02-28T04:46:40;0.80;96.00
31819;DHT22;18384;48.860;9.188;2023-02-28T04:49:09;0.80;96.00
31819;DHT22;18384;48.860;9.188;2023-02-28T04:51:36;0.80;96.10
31819;DHT22;18384;48.860;9.188;2023-02-28T04:54:02;0.80;96.10
31819;DHT22;18384;48.860;9.188;2023-02-28T04:56:29;0.70;96.10
31819;DHT22;18384;48.860;9.188;2023-02-28T04:58:55;0.80;96.10
31819;DHT22;18384;48.860;9.188;2023-02-28T05:01:30;0.90;96.10
31819;DHT22;18384;48.860;9.188;2023-02-28T05:04:00;0.80;95.90
31819;DHT22;18384;48.860;9.188;2023-02-28T05:06:29;0.90;96.10
31819;DHT22;18384;48.860;9.188;2023-02-28T05:08:56;0.90;96.00
31819;DHT22;18384;48.860;9.188;2023-02-28T05:11:26;0.90;96.10
31819;DHT22;18384;48.860;9.188;2023-02-28T05:14:05;0.80;96.00
31819;DHT22;18384;48.860;9.188;2023-02-28T05:16:33;0.90;96.20
31819;DHT22;18384;48.860;9.188;2023-02-28T05:18:58;0.90;96.10
31819;DHT22;18384;48.860;9.188;2023-02-28T05:21:34;0.90;96.10
31819;DHT22;18384;48.860;9.188;2023-02-28T05:24:04;0.90;96.10
31819;DHT22;18384;48.860;9.188;2023-02-28T05:26:35;1.00;96.10
31819;DHT22;18384;48.860;9.188;2023-02-28T05:29:02;1.00;96.00
31819;DHT22;18384;48.860;9.188;2023-02-28T05:31:28;1.00;96.00
31819;DHT22;18384;48.860;9.188;2023-02-28T05:33:54;0.90;95.90
31819;DHT22;18384;48.860;9.188;2023-02-28T05:36:20;0.90;96.00
31819;DHT22;18384;48.860;9.188;2023-02-28T05:38:50;0.90;96.00
31819;DHT22;18384;48.860;9.188;2023-02-28T05:41:18;0.90;96.10
31819;DHT22;18384;48.860;9.188;2023-02-28T05:43:45;0.80;96.10
31819;DHT22;18384;48.860;9.188;2023-02-28T05:46:12;0.80;96.10
31819;DHT22;18384;48.860;9.188;2023-02-28T05:48:40;0.80;96.20
31819;DHT22;18384;48.860;9.188;2023-02-28T05:51:09;0.90;96.30
31819;DHT22;18384;48.860;9.188;2023-02-28T05:53:35;0.90;96.00
31819;DHT22;18384;48.860;9.188;2023-02-28T05:56:02;0.80;96.00
31819;DHT22;18384;48.860;9.188;2023-02-28T05:58:28;0.80;96.00
31819;DHT22;18384;48.860;9.188;2023-02-28T06:01:00;0.80;96.20
31819;DHT22;18384;48.860;9.188;2023-02-28T06:03:44;0.90;96.20
31819;DHT22;18384;48.860;9.188;2023-02-28T06:06:10;1.00;96.10
31819;DHT22;18384;48.860;9.188;2023-02-28T06:08:36;1.00;95.90
31819;DHT22;18384;48.860;9.188;2023-02-28T06:11:03;1.10;96.00
31819;DHT22;18384;48.860;9.188;2023-02-28T06:13:30;1.10;95.70
31819;DHT22;18384;48.860;9.188;2023-02-28T06:15:56;1.00;95.60
31819;DHT22;18384;48.860;9.188;2023-02-28T06:18:22;1.00;95.90
31819;DHT22;18384;48.860;9.188;2023-02-28T06:20:55;1.00;96.00
31819;DHT22;18384;48.860;9.188;2023-02-28T06:23:22;1.00;95.90
31819;DHT22;18384;48.860;9.188;2023-02-28T06:25:48;1.00;95.80
31819;DHT22;18384;48.860;9.188;2023-02-28T06:28:15;0.90;95.90
31819;DHT22;18384;48.860;9.188;2023-02-28T06:30:41;1.00;96.00
31819;DHT22;18384;48.860;9.188;2023-02-28T06:33:07;1.10;95.90
31819;DHT22;18384;48.860;9.188;2023-02-28T06:35:33;1.00;95.70
31819;DHT22;18384;48.860;9.188;2023-02-28T06:38:00;1.00;95.80
31819;DHT22;18384;48.860;9.188;2023-02-28T06:40:26;1.00;95.80
31819;DHT22;18384;48.860;9.188;2023-02-28T06:42:52;1.00;95.80
31819;DHT22;18384;48.860;9.188;2023-02-28T06:45:18;1.00;95.70
31819;DHT22;18384;48.860;9.188;2023-02-28T06:47:44;-1.00;95.20
31819;DHT22;18384;48.860;9.188;2023-02-28T06:50:12;1.10;95.70
31819;DHT22;18384;48.860;9.188;2023-02-28T06:52:38;1.10;95.60
31819;DHT22;18384;48.860;9.188;2023-02-28T06:55:06;1.10;95.80
31819;DHT22;18384;48.860;9.188;2023-02-28T06:57:33;1.20;95.60
31819;DHT22;18384;48.860;9.188;2023-02-28T07:00:02;1.20;95.50
31819;DHT22;18384;48.860;9.188;2023-02-28T07:02:33;1.20;95.50
31819;DHT22;18384;48.860;9.188;2023-02-28T07:05:00;1.10;95.60
31819;DHT22;18384;48.860;9.188;2023-02-28T07:07:26;1.20;95.80
31819;DHT22;18384;48.860;9.188;2023-02-28T07:09:52;1.20;95.70
31819;DHT22;18384;48.860;9.188;2023-02-28T07:12:19;1.20;95.50
31819;DHT22;18384;48.860;9.188;2023-02-28T07:14:45;1.20;95.50
31819;DHT22;18384;48.860;9.188;2023-02-28T07:17:11;1.20;95.40
31819;DHT22;18384;48.860;9.188;2023-02-28T07:19:39;1.20;95.40
31819;DHT22;18384;48.860;9.188;2023-02-28T07:22:06;1.30;95.60
31819;DHT22;18384;48.860;9.188;2023-02-28T07:24:32;1.20;95.30
31819;DHT22;18384;48.860;9.188;2023-02-28T07:26:58;1.20;95.40
31819;DHT22;18384;48.860;9.188;2023-02-28T07:29:25;1.20;95.40
31819;DHT22;18384;48.860;9.188;2023-02-28T07:31:51;1.20;95.30
31819;DHT22;18384;48.860;9.188;2023-02-28T07:34:19;1.10;95.40
31819;DHT22;18384;48.860;9.188;2023-02-28T07:36:46;1.10;95.30
31819;DHT22;18384;48.860;9.188;2023-02-28T07:39:12;1.10;95.40
31819;DHT22;18384;48.860;9.188;2023-02-28T07:41:38;1.10;95.40
31819;DHT22;18384;48.860;9.188;2023-02-28T07:44:11;1.10;95.50
31819;DHT22;18384;48.860;9.188;2023-02-28T07:46:38;1.20;95.70
31819;DHT22;18384;48.860;9.188;2023-02-28T07:49:05;1.30;95.50
31819;DHT22;18384;48.860;9.188;2023-02-28T07:51:32;0.00;95.00
31819;DHT22;18384;48.860;9.188;2023-02-28T07:53:58;1.40;95.20
31819;DHT22;18384;48.860;9.188;2023-02-28T07:56:24;1.50;95.30
31819;DHT22;18384;48.860;9.188;2023-02-28T07:58:50;1.50;95.20
31819;DHT22;18384;48.860;9.188;2023-02-28T08:01:16;1.40;95.10
31819;DHT22;18384;48.860;9.188;2023-02-28T08:03:44;1.40;95.10
31819;DHT22;18384;48.860;9.188;2023-02-28T08:06:18;1.40;95.20
31819;DHT22;18384;48.860;9.188;2023-02-28T08:08:47;1.50;95.10
31819;DHT22;18384;48.860;9.188;2023-02-28T08:11:15;1.50;94.90
31819;DHT22;18384;48.860;9.188;2023-02-28T08:13:41;1.50;95.10
31819;DHT22;18384;48.860;9.188;2023-02-28T08:16:10;1.50;95.00
31819;DHT22;18384;48.860;9.188;2023-02-28T08:18:36;2.20;95.30
31819;DHT22;18384;48.860;9.188;2023-02-28T08:21:07;1.50;95.10
31819;DHT22;18384;48.860;9.188;2023-02-28T08:23:34;1.50;95.00
31819;DHT22;18384;48.860;9.188;2023-02-28T08:26:01;1.50;94.90
31819;DHT22;18384;48.860;9.188;2023-02-28T08:28:28;1.60;95.00
31819;DHT22;18384;48.860;9.188;2023-02-28T08:30:54;1.60;94.80
31819;DHT22;18384;48.860;9.188;2023-02-28T08:33:21;1.80;94.90
31819;DHT22;18384;48.860;9.188;2023-02-28T08:35:48;1.70;94.70
31819;DHT22;18384;48.860;9.188;2023-02-28T08:38:14;1.70;94.90
31819;DHT22;18384;48.860;9.188;2023-02-28T08:40:40;1.70;94.90
31819;DHT22;18384;48.860;9.188;2023-02-28T08:43:07;1.70;94.80
31819;DHT22;18384;48.860;9.188;2023-02-28T08:45:33;1.80;94.80
31819;DHT22;18384;48.860;9.188;2023-02-28T08:47:59;1.80;94.80
31819;DHT22;18384;48.860;9.188;2023-02-28T08:50:25;1.80;94.80
31819;DHT22;18384;48.860;9.188;2023-02-28T08:52:51;1.90;94.60
31819;DHT22;18384;48.860;9.188;2023-02-28T08:55:17;2.00;94.50
31819;DHT22;18384;48.860;9.188;2023-02-28T08:57:43;1.90;94.50
31819;DHT22;18384;48.860;9.188;2023-02-28T09:00:10;1.90;94.40
31819;DHT22;18384;48.860;9.188;2023-02-28T09:02:39;2.00;94.60
31819;DHT22;18384;48.860;9.188;2023-02-28T09:05:06;2.00;94.50
31819;DHT22;18384;48.860;9.188;2023-02-28T09:07:33;2.20;94.20
31819;DHT22;18384;48.860;9.188;2023-02-28T09:09:59;2.10;94.20
31819;DHT22;18384;48.860;9.188;2023-02-28T09:12:27;2.20;94.30
31819;DHT22;18384;48.860;9.188;2023-02-28T09:14:57;2.20;94.20
31819;DHT22;18384;48.860;9.188;2023-02-28T09:17:23;2.30;94.30
31819;DHT22;18384;48.860;9.188;2023-02-28T09:19:49;2.30;94.00
31819;DHT22;18384;48.860;9.188;2023-02-28T09:22:16;2.40;93.90
31819;DHT22;18384;48.860;9.188;2023-02-28T09:24:42;3.50;94.10
31819;DHT22;18384;48.860;9.188;2023-02-28T09:27:10;2.60;93.70
31819;DHT22;18384;48.860;9.188;2023-02-28T09:29:36;2.70;93.90
31819;DHT22;18384;48.860;9.188;2023-02-28T09:32:02;2.70;93.40
31819;DHT22;18384;48.860;9.188;2023-02-28T09:34:31;2.70;93.80
31819;DHT22;18384;48.860;9.188;2023-02-28T09:36:57;2.80;93.40
31819;DHT22;18384;48.860;9.188;2023-02-28T09:39:23;2.90;93.20
31819;DHT22;18384;48.860;9.188;2023-02-28T09:41:52;3.00;93.30
31819;DHT22;18384;48.860;9.188;2023-02-28T09:44:26;3.20;93.00
31819;DHT22;18384;48.860;9.188;2023-02-28T09:47:05;3.30;92.80
31819;DHT22;18384;48.860;9.188;2023-02-28T09:49:45;3.40;92.60
31819;DHT22;18384;48.860;9.188;2023-02-28T09:52:19;3.40;92.20
31819;DHT22;18384;48.860;9.188;2023-02-28T09:54:48;3.40;92.00
31819;DHT22;18384;48.860;9.188;2023-02-28T09:57:36;3.40;91.80
31819;DHT22;18384;48.860;9.188;2023-02-28T10:00:30;3.30;91.70
31819;DHT22;18384;48.860;9.188;2023-02-28T10:06:22;3.40;91.50
31819;DHT22;18384;48.860;9.188;2023-02-28T10:09:04;3.50;91.20
31819;DHT22;18384;48.860;9.188;2023-02-28T10:11:36;3.50;91.50
31819;DHT22;18384;48.860;9.188;2023-02-28T10:14:14;3.50;91.40
31819;DHT22;18384;48.860;9.188;2023-02-28T10:16:47;3.60;91.40
31819;DHT22;18384;48.860;9.188;2023-02-28T10:20:06;3.70;91.10
31819;DHT22;18384;48.860;9.188;2023-02-28T10:23:04;3.80;91.10
31819;DHT22;18384;48.860;9.188;2023-02-28T10:25:50;3.80;90.90
31819;DHT22;18384;48.860;9.188;2023-02-28T10:28:20;3.90;91.10
31819;DHT22;18384;48.860;9.188;2023-02-28T10:30:51;3.90;90.60
31819;DHT22;18384;48.860;9.188;2023-02-28T10:33:23;4.00;90.90
31819;DHT22;18384;48.860;9.188;2023-02-28T10:35:54;4.00;90.50
31819;DHT22;18384;48.860;9.188;2023-02-28T10:38:39;4.00;91.10
31819;DHT22;18384;48.860;9.188;2023-02-28T10:41:09;4.10;90.80
31819;DHT22;18384;48.860;9.188;2023-02-28T10:43:37;4.20;91.10
31819;DHT22;18384;48.860;9.188;2023-02-28T10:46:16;4.30;90.90
31819;DHT22;18384;48.860;9.188;2023-02-28T10:49:14;4.40;90.20
31819;DHT22;18384;48.860;9.188;2023-02-28T10:51:46;4.50;90.20
31819;DHT22;18384;48.860;9.188;2023-02-28T10:54:19;4.50;90.30
31819;DHT22;18384;48.860;9.188;2023-02-28T10:57:07;4.50;90.10
31819;DHT22;18384;48.860;9.188;2023-02-28T10:59:51;4.50;89.70
31819;DHT22;18384;48.860;9.188;2023-02-28T11:02:34;4.50;89.40
31819;DHT22;18384;48.860;9.188;2023-02-28T11:05:14;4.60;90.10
31819;DHT22;18384;48.860;9.188;2023-02-28T11:08:04;4.80;90.30
31819;DHT22;18384;48.860;9.188;2023-02-28T11:10:38;4.90;90.00
31819;DHT22;18384;48.860;9.188;2023-02-28T11:13:05;5.10;89.50
31819;DHT22;18384;48.860;9.188;2023-02-28T11:15:35;5.00;88.60
31819;DHT22;18384;48.860;9.188;2023-02-28T11:18:19;4.90;89.20
31819;DHT22;18384;48.860;9.188;2023-02-28T11:20:52;4.90;89.20
31819;DHT22;18384;48.860;9.188;2023-02-28T11:23:20;4.90;89.40
31819;DHT22;18384;48.860;9.188;2023-02-28T11:25:50;5.00;89.30
31819;DHT22;18384;48.860;9.188;2023-02-28T11:28:34;5.10;89.30
31819;DHT22;18384;48.860;9.188;2023-02-28T11:33:55;5.20;89.10
31819;DHT22;18384;48.860;9.188;2023-02-28T11:36:27;5.20;88.30
31819;DHT22;18384;48.860;9.188;2023-02-28T11:39:01;5.20;88.90
31819;DHT22;18384;48.860;9.188;2023-02-28T11:42:41;5.20;87.60
31819;DHT22;18384;48.860;9.188;2023-02-28T11:47:15;5.30;89.30
31819;DHT22;18384;48.860;9.188;2023-02-28T11:50:22;5.40;89.00
31819;DHT22;18384;48.860;9.188;2023-02-28T12:00:32;5.30;87.50
31819;DHT22;18384;48.860;9.188;2023-02-28T12:03:58;5.40;88.60
31819;DHT22;18384;48.860;9.188;2023-02-28T12:06:55;5.40;87.00
31819;DHT22;18384;48.860;9.188;2023-02-28T12:14:49;5.30;87.70
31819;DHT22;18384;48.860;9.188;2023-02-28T12:25:40;5.40;87.20
31819;DHT22;18384;48.860;9.188;2023-02-28T12:30:04;5.70;86.60
31819;DHT22;18384;48.860;9.188;2023-02-28T12:33:06;5.70;86.40
31819;DHT22;18384;48.860;9.188;2023-02-28T12:35:49;5.70;87.40
31819;DHT22;18384;48.860;9.188;2023-02-28T12:38:43;5.70;86.60
31819;DHT22;18384;48.860;9.188;2023-02-28T12:41:17;5.70;86.10
31819;DHT22;18384;48.860;9.188;2023-02-28T12:44:01;5.60;86.00
31819;DHT22;18384;48.860;9.188;2023-02-28T12:46:36;5.60;86.00
31819;DHT22;18384;48.860;9.188;2023-02-28T12:49:14;5.50;86.10
31819;DHT22;18384;48.860;9.188;2023-02-28T12:53:32;5.40;86.40
31819;DHT22;18384;48.860;9.188;2023-02-28T12:56:24;5.40;86.80
31819;DHT22;18384;48.860;9.188;2023-02-28T12:59:23;5.30;86.40
31819;DHT22;18384;48.860;9.188;2023-02-28T13:02:27;5.40;86.70
31819;DHT22;18384;48.860;9.188;2023-02-28T13:05:31;5.50;86.70
31819;DHT22;18384;48.860;9.188;2023-02-28T13:09:56;5.50;86.80
31819;DHT22;18384;48.860;9.188;2023-02-28T13:12:23;5.50;86.00
31819;DHT22;18384;48.860;9.188;2023-02-28T13:15:07;5.40;85.80
31819;DHT22;18384;48.860;9.188;2023-02-28T13:17:39;5.40;86.10
31819;DHT22;18384;48.860;9.188;2023-02-28T13:20:19;5.50;86.30
31819;DHT22;18384;48.860;9.188;2023-02-28T13:22:54;5.50;86.20
31819;DHT22;18384;48.860;9.188;2023-02-28T13:30:02;5.50;85.80
31819;DHT22;18384;48.860;9.188;2023-02-28T13:33:35;5.50;85.80
31819;DHT22;18384;48.860;9.188;2023-02-28T13:37:54;5.50;85.70
31819;DHT22;18384;48.860;9.188;2023-02-28T13:40:38;5.60;85.80
31819;DHT22;18384;48.860;9.188;2023-02-28T13:43:08;5.60;85.30
31819;DHT22;18384;48.860;9.188;2023-02-28T13:45:35;5.60;86.10
31819;DHT22;18384;48.860;9.188;2023-02-28T13:48:19;5.70;85.70
31819;DHT22;18384;48.860;9.188;2023-02-28T13:50:52;5.70;85.20
31819;DHT22;18384;48.860;9.188;2023-02-28T13:53:46;5.70;85.50
31819;DHT22;18384;48.860;9.188;2023-02-28T13:56:42;5.70;86.10
31819;DHT22;18384;48.860;9.188;2023-02-28T13:59:36;5.80;86.10
31819;DHT22;18384;48.860;9.188;2023-02-28T14:09:50;5.80;85.70
31819;DHT22;18384;48.860;9.188;2023-02-28T14:12:57;5.70;85.80
31819;DHT22;18384;48.860;9.188;2023-02-28T14:15:46;5.70;85.20
31819;DHT22;18384;48.860;9.188;2023-02-28T14:18:34;5.70;85.30
31819;DHT22;18384;48.860;9.188;2023-02-28T14:21:31;5.70;85.60
31819;DHT22;18384;48.860;9.188;2023-02-28T14:25:57;5.70;85.60
31819;DHT22;18384;48.860;9.188;2023-02-28T14:32:21;5.70;85.60
31819;DHT22;18384;48.860;9.188;2023-02-28T14:34:59;5.80;85.50
31819;DHT22;18384;48.860;9.188;2023-02-28T14:37:47;5.80;85.20
31819;DHT22;18384;48.860;9.188;2023-02-28T14:40:32;5.70;85.80
31819;DHT22;18384;48.860;9.188;2023-02-28T14:43:06;5.70;86.00
31819;DHT22;18384;48.860;9.188;2023-02-28T14:45:55;5.80;85.80
31819;DHT22;18384;48.860;9.188;2023-02-28T14:48:24;5.80;85.90
31819;DHT22;18384;48.860;9.188;2023-02-28T14:50:55;5.80;86.10
31819;DHT22;18384;48.860;9.188;2023-02-28T14:53:26;5.90;86.00
31819;DHT22;18384;48.860;9.188;2023-02-28T14:55:54;5.90;86.10
31819;DHT22;18384;48.860;9.188;2023-02-28T14:58:27;5.90;85.60
31819;DHT22;18384;48.860;9.188;2023-02-28T15:00:58;5.90;85.70
31819;DHT22;18384;48.860;9.188;2023-02-28T15:03:33;5.90;85.40
31819;DHT22;18384;48.860;9.188;2023-02-28T15:06:21;5.90;86.20
31819;DHT22;18384;48.860;9.188;2023-02-28T15:08:48;5.90;86.40
31819;DHT22;18384;48.860;9.188;2023-02-28T15:11:35;5.90;85.80
31819;DHT22;18384;48.860;9.188;2023-02-28T15:14:03;5.80;86.00
31819;DHT22;18384;48.860;9.188;2023-02-28T15:16:37;5.80;86.00
31819;DHT22;18384;48.860;9.188;2023-02-28T15:19:26;5.80;86.40
31819;DHT22;18384;48.860;9.188;2023-02-28T15:22:04;5.80;86.20
31819;DHT22;18384;48.860;9.188;2023-02-28T15:24:45;5.80;85.60
31819;DHT22;18384;48.860;9.188;2023-02-28T15:27:21;5.80;86.30
31819;DHT22;18384;48.860;9.188;2023-02-28T15:29:53;5.80;86.20
31819;DHT22;18384;48.860;9.188;2023-02-28T15:32:28;5.80;86.50
31819;DHT22;18384;48.860;9.188;2023-02-28T15:35:16;5.80;86.80
31819;DHT22;18384;48.860;9.188;2023-02-28T15:38:02;5.70;86.60
31819;DHT22;18384;48.860;9.188;2023-02-28T15:40:45;5.70;86.30
31819;DHT22;18384;48.860;9.188;2023-02-28T15:43:31;5.70;86.60
31819;DHT22;18384;48.860;9.188;2023-02-28T15:46:12;5.60;86.60
31819;DHT22;18384;48.860;9.188;2023-02-28T15:48:54;5.60;87.20
31819;DHT22;18384;48.860;9.188;2023-02-28T15:51:29;5.60;87.20
31819;DHT22;18384;48.860;9.188;2023-02-28T15:56:51;5.50;87.60
31819;DHT22;18384;48.860;9.188;2023-02-28T15:59:26;5.50;87.70
31819;DHT22;18384;48.860;9.188;2023-02-28T16:02:13;5.50;87.90
31819;DHT22;18384;48.860;9.188;2023-02-28T16:09:48;5.40;88.00
31819;DHT22;18384;48.860;9.188;2023-02-28T16:12:14;5.40;88.50
31819;DHT22;18384;48.860;9.188;2023-02-28T16:14:41;5.40;88.80
31819;DHT22;18384;48.860;9.188;2023-02-28T16:17:20;5.30;88.40
31819;DHT22;18384;48.860;9.188;2023-02-28T16:19:54;5.30;88.40
31819;DHT22;18384;48.860;9.188;2023-02-28T16:22:21;5.20;88.50
31819;DHT22;18384;48.860;9.188;2023-02-28T16:24:46;5.20;89.10
31819;DHT22;18384;48.860;9.188;2023-02-28T16:27:20;5.20;89.00
31819;DHT22;18384;48.860;9.188;2023-02-28T16:29:48;5.20;89.20
31819;DHT22;18384;48.860;9.188;2023-02-28T16:32:15;5.20;89.30
31819;DHT22;18384;48.860;9.188;2023-02-28T16:34:44;5.20;89.40
31819;DHT22;18384;48.860;9.188;2023-02-28T16:37:17;5.20;89.40
31819;DHT22;18384;48.860;9.188;2023-02-28T16:39:44;5.10;89.60
31819;DHT22;18384;48.860;9.188;2023-02-28T16:42:23;5.10;89.80
31819;DHT22;18384;48.860;9.188;2023-02-28T16:44:52;5.10;89.80
31819;DHT22;18384;48.860;9.188;2023-02-28T16:47:19;5.00;90.10
31819;DHT22;18384;48.860;9.188;2023-02-28T16:49:45;5.00;90.20
31819;DHT22;18384;48.860;9.188;2023-02-28T16:52:14;5.00;90.30
31819;DHT22;18384;48.860;9.188;2023-02-28T16:54:40;5.00;90.30
31819;DHT22;18384;48.860;9.188;2023-02-28T16:57:19;4.90;90.30
31819;DHT22;18384;48.860;9.188;2023-02-28T16:59:47;4.80;90.20
31819;DHT22;18384;48.860;9.188;2023-02-28T17:02:15;4.70;90.20
31819;DHT22;18384;48.860;9.188;2023-02-28T17:04:45;4.70;90.30
31819;DHT22;18384;48.860;9.188;2023-02-28T17:07:14;4.60;90.40
31819;DHT22;18384;48.860;9.188;2023-02-28T17:09:43;4.60;90.40
31819;DHT22;18384;48.860;9.188;2023-02-28T17:12:09;4.60;90.50
31819;DHT22;18384;48.860;9.188;2023-02-28T17:14:37;4.60;90.50
31819;DHT22;18384;48.860;9.188;2023-02-28T17:17:09;4.50;90.50
31819;DHT22;18384;48.860;9.188;2023-02-28T17:19:46;4.50;90.50
31819;DHT22;18384;48.860;9.188;2023-02-28T17:22:30;4.50;90.50
31819;DHT22;18384;48.860;9.188;2023-02-28T17:24:56;4.40;90.60
31819;DHT22;18384;48.860;9.188;2023-02-28T17:27:23;4.40;90.70
31819;DHT22;18384;48.860;9.188;2023-02-28T17:29:49;4.40;90.70
31819;DHT22;18384;48.860;9.188;2023-02-28T17:32:15;4.30;90.70
31819;DHT22;18384;48.860;9.188;2023-02-28T17:34:41;4.30;90.80
31819;DHT22;18384;48.860;9.188;2023-02-28T17:37:09;4.30;90.80
31819;DHT22;18384;48.860;9.188;2023-02-28T17:39:35;4.30;90.90
31819;DHT22;18384;48.860;9.188;2023-02-28T17:42:02;4.30;90.90